GOI weather

Dabolim Airport
Vasco da Gama, Goa, India

Public forecast

Using degrees Celsius for public forecast. Weather courtesy of forecast.io.

Closest aviation weather report (METAR) to Dabolim Airport

Closest report is Belgaum Airport, 53.8 nm (99.7 km) ENE. Retrieved 2019/10/19 00:00 UTC (36 minutes ago):

VOBM 190000Z 00000KT 6000 SCT012 BKN080 21/20 Q1015

Closest aviation forecast (TAF) to Dabolim Airport

Forecast is more than 12 hours old.

Retrieved 2016/04/03 00:00 UTC (4 years ago):

TAF VOGO 032100Z 0400/0506 27010KT 6000 FEW018 SCT090 BECMG 0418/0420 VRB03KT 5000 HZ/BR BECMG 0502/0504 27010KT 6000